Time;durP1;ratioP1;P1;durP2;ratioP2;P2;SDS_P1;SDS_P2;PMS_P1;PMS_P2;Temp;Humidity;BMP_temperature;BMP_pressure;BME280_temperature;BME280_humidity;BME280_pressure;Samples;Min_cycle;Max_cycle;Signal;HPM_P1;HPM_P2
2022/04/14 00:01:11;;;;;;;1.60;1.30;;;24.40;58.10;;;;;;5036482;28;20471;-82
2022/04/14 00:03:40;;;;;;;1.50;1.40;;;24.40;58.10;;;;;;5038165;28;20478;-82
2022/04/14 00:06:06;;;;;;;1.50;1.30;;;24.40;58.10;;;;;;5038114;28;20438;-82
2022/04/14 00:08:33;;;;;;;1.60;1.50;;;24.50;58.20;;;;;;5039641;28;20438;-80
2022/04/14 00:11:00;;;;;;;1.37;1.27;;;24.40;58.20;;;;;;5036688;28;20443;-85
2022/04/14 00:13:27;;;;;;;1.37;1.27;;;24.40;58.20;;;;;;5035234;28;20538;-82
2022/04/14 00:15:55;;;;;;;1.30;1.20;;;24.40;58.20;;;;;;5034671;28;20467;-82
2022/04/14 00:18:22;;;;;;;1.50;1.40;;;24.40;58.20;;;;;;5035459;28;20451;-82
2022/04/14 00:20:48;;;;;;;1.70;1.60;;;24.40;58.20;;;;;;5035660;28;20443;-82
2022/04/14 00:23:15;;;;;;;1.60;1.50;;;24.40;58.30;;;;;;5035435;28;20493;-85
2022/04/14 00:25:42;;;;;;;1.77;1.67;;;24.40;58.20;;;;;;5035419;28;20441;-82
2022/04/14 00:28:09;;;;;;;1.40;1.30;;;24.40;58.20;;;;;;5035229;28;20443;-82
2022/04/14 00:30:36;;;;;;;1.60;1.50;;;24.40;58.20;;;;;;5035435;28;20936;-82
2022/04/14 00:33:04;;;;;;;1.40;1.30;;;24.40;58.20;;;;;;5035172;28;20443;-86
2022/04/14 00:35:31;;;;;;;1.40;1.30;;;24.30;58.10;;;;;;5035247;28;20447;-82
2022/04/14 00:37:58;;;;;;;1.63;1.53;;;24.40;58.10;;;;;;5034891;28;20801;-82
2022/04/14 00:40:25;;;;;;;1.50;1.40;;;24.40;58.20;;;;;;5035127;28;20454;-82
2022/04/14 00:42:52;;;;;;;1.50;1.30;;;24.30;58.10;;;;;;5035091;28;20839;-82
2022/04/14 00:45:18;;;;;;;1.67;1.47;;;24.30;58.10;;;;;;5034877;28;20470;-82
2022/04/14 00:47:45;;;;;;;1.63;1.17;;;24.30;58.10;;;;;;5034948;28;20441;-82
2022/04/14 00:50:14;;;;;;;1.20;1.10;;;24.30;58.10;;;;;;5034918;28;20446;-82
2022/04/14 00:52:45;;;;;;;1.30;1.20;;;24.30;58.10;;;;;;5034821;28;20506;-82
2022/04/14 00:55:11;;;;;;;1.50;1.40;;;24.40;58.20;;;;;;5034948;28;20439;-85
2022/04/14 00:57:38;;;;;;;1.87;1.77;;;24.30;58.00;;;;;;5034615;28;20446;-83
2022/04/14 01:00:06;;;;;;;1.20;1.10;;;24.30;58.10;;;;;;5034842;28;20439;-82
2022/04/14 01:02:34;;;;;;;1.40;1.30;;;24.30;58.20;;;;;;5034530;28;20492;-82
2022/04/14 01:05:01;;;;;;;1.30;1.20;;;24.30;58.70;;;;;;5034669;28;20439;-82
2022/04/14 01:07:30;;;;;;;1.57;1.47;;;24.30;58.10;;;;;;5034618;28;20541;-82
2022/04/14 01:09:57;;;;;;;1.50;1.40;;;24.30;58.10;;;;;;5034371;28;20442;-84
2022/04/14 01:12:25;;;;;;;1.33;1.23;;;24.30;58.10;;;;;;5034423;28;20434;-82
2022/04/14 01:14:51;;;;;;;1.90;1.30;;;24.30;58.10;;;;;;5034458;28;20796;-85
2022/04/14 01:17:18;;;;;;;1.23;1.13;;;24.30;58.20;;;;;;5034478;28;20446;-82
2022/04/14 01:19:45;;;;;;;1.30;1.00;;;24.30;58.10;;;;;;5034265;28;20438;-82
2022/04/14 01:22:18;;;;;;;1.40;1.30;;;24.30;58.10;;;;;;5034184;28;20486;-82
2022/04/14 01:24:47;;;;;;;1.70;1.20;;;24.30;58.10;;;;;;5034383;28;20449;-82
2022/04/14 01:27:13;;;;;;;1.53;1.43;;;24.30;57.90;;;;;;5034072;28;20999;-82
2022/04/14 01:29:40;;;;;;;1.63;1.53;;;24.30;58.10;;;;;;5034152;28;20457;-82
2022/04/14 01:32:08;;;;;;;2.43;1.30;;;24.30;58.00;;;;;;5034047;28;20442;-82
2022/04/14 01:34:35;;;;;;;1.00;0.90;;;24.30;58.10;;;;;;5034215;28;20438;-82
2022/04/14 01:37:02;;;;;;;1.30;1.20;;;24.30;58.00;;;;;;5033856;28;20474;-82
2022/04/14 01:39:29;;;;;;;2.10;1.10;;;24.30;58.00;;;;;;5033977;28;20439;-82
2022/04/14 01:41:57;;;;;;;1.10;1.00;;;24.30;58.00;;;;;;5033886;28;20834;-82
2022/04/14 01:44:24;;;;;;;1.50;1.40;;;24.30;58.00;;;;;;5016479;28;20441;-83
2022/04/14 01:46:51;;;;;;;1.23;1.13;;;24.30;58.10;;;;;;5033850;28;20470;-85
2022/04/14 01:49:18;;;;;;;1.60;1.50;;;24.30;57.90;;;;;;5033730;28;20446;-82
2022/04/14 01:51:44;;;;;;;1.70;1.60;;;24.30;58.30;;;;;;5033744;28;20446;-82
2022/04/14 01:54:11;;;;;;;1.37;1.27;;;24.30;58.70;;;;;;5033818;28;20443;-82
2022/04/14 01:56:38;;;;;;;1.70;1.60;;;24.30;58.00;;;;;;5033768;28;20454;-82
2022/04/14 01:59:07;;;;;;;1.30;1.10;;;24.20;57.90;;;;;;5033700;28;20443;-86
2022/04/14 02:01:34;;;;;;;1.60;1.50;;;24.30;58.10;;;;;;5033496;28;20443;-85
2022/04/14 02:04:02;;;;;;;1.40;1.30;;;24.20;58.00;;;;;;5033672;28;20817;-81
2022/04/14 02:06:29;;;;;;;1.30;1.20;;;24.20;58.10;;;;;;5033480;28;20778;-82
2022/04/14 02:08:56;;;;;;;1.20;1.10;;;24.20;58.00;;;;;;5033462;28;20450;-81
2022/04/14 02:11:23;;;;;;;1.60;1.33;;;24.20;58.10;;;;;;5033557;28;20439;-82
2022/04/14 02:13:49;;;;;;;1.30;1.20;;;24.20;58.20;;;;;;5033353;28;20455;-85
2022/04/14 02:16:17;;;;;;;1.30;1.20;;;24.30;58.20;;;;;;5033304;28;20466;-82
2022/04/14 02:18:45;;;;;;;1.30;1.17;;;24.20;58.20;;;;;;5033378;28;20439;-82
2022/04/14 02:21:11;;;;;;;1.20;1.10;;;24.20;58.10;;;;;;5033367;28;20438;-83
2022/04/14 02:23:38;;;;;;;1.33;1.20;;;24.20;58.20;;;;;;5033320;28;20482;-85
2022/04/14 02:26:05;;;;;;;1.20;1.10;;;24.20;58.20;;;;;;5033315;28;20439;-84
2022/04/14 02:28:32;;;;;;;1.40;1.30;;;24.20;58.30;;;;;;5033219;28;20445;-82
2022/04/14 02:30:58;;;;;;;1.20;1.10;;;24.20;58.20;;;;;;5033252;28;20443;-82
2022/04/14 02:33:26;;;;;;;1.30;1.20;;;24.20;58.20;;;;;;5033099;28;20443;-82
2022/04/14 02:35:53;;;;;;;1.47;1.37;;;24.20;58.10;;;;;;5033061;28;20438;-82
2022/04/14 02:38:20;;;;;;;1.33;1.20;;;24.20;58.20;;;;;;5032540;28;20439;-84
2022/04/14 02:40:47;;;;;;;1.20;1.10;;;24.20;58.20;;;;;;5033222;28;20438;-82
2022/04/14 02:43:13;;;;;;;1.33;1.23;;;24.20;58.30;;;;;;5032902;28;20482;-82
2022/04/14 02:45:41;;;;;;;1.53;1.43;;;24.20;58.30;;;;;;5032963;28;20474;-85
2022/04/14 02:48:08;;;;;;;1.40;1.20;;;24.20;58.30;;;;;;5033118;28;20446;-85
2022/04/14 02:50:37;;;;;;;1.20;1.10;;;24.20;58.30;;;;;;5033075;28;20438;-82
2022/04/14 02:53:03;;;;;;;1.30;1.20;;;24.20;58.40;;;;;;5032922;28;20441;-82
2022/04/14 02:55:30;;;;;;;2.07;1.23;;;24.20;58.40;;;;;;5032909;28;20926;-82
2022/04/14 02:57:57;;;;;;;1.23;1.10;;;24.20;58.40;;;;;;5032924;28;20968;-83
2022/04/14 03:00:24;;;;;;;1.40;1.30;;;24.20;58.40;;;;;;5033040;28;20439;-84
2022/04/14 03:02:50;;;;;;;1.50;1.40;;;24.20;58.40;;;;;;5032874;28;20488;-82
2022/04/14 03:05:17;;;;;;;1.40;1.30;;;24.20;58.40;;;;;;5033000;28;20454;-82
2022/04/14 03:07:45;;;;;;;1.33;1.23;;;24.20;58.40;;;;;;5032697;28;20449;-82
2022/04/14 03:10:12;;;;;;;1.30;1.20;;;24.20;58.40;;;;;;5032920;28;20442;-82
2022/04/14 03:12:43;;;;;;;1.20;1.10;;;24.20;58.40;;;;;;5032602;28;20814;-81
2022/04/14 03:15:10;;;;;;;1.37;1.27;;;24.20;58.40;;;;;;5032701;28;20516;-82
2022/04/14 03:17:37;;;;;;;1.60;1.50;;;24.20;58.30;;;;;;5032659;28;20549;-82
2022/04/14 03:20:05;;;;;;;1.77;1.10;;;24.20;58.40;;;;;;5032744;28;20913;-82
2022/04/14 03:22:34;;;;;;;1.20;1.10;;;24.20;58.40;;;;;;5032673;28;20478;-82
2022/04/14 03:25:03;;;;;;;1.20;1.10;;;24.20;58.40;;;;;;5032740;28;20497;-81
2022/04/14 03:27:30;;;;;;;1.17;1.07;;;24.20;58.40;;;;;;5032908;28;20534;-82
2022/04/14 03:29:57;;;;;;;1.20;1.10;;;24.20;58.30;;;;;;5032548;28;20443;-85
2022/04/14 03:32:24;;;;;;;1.20;1.10;;;24.20;58.40;;;;;;5032259;28;20795;-81
2022/04/14 03:34:52;;;;;;;1.13;1.03;;;24.20;58.40;;;;;;5032688;28;20453;-85
2022/04/14 03:37:19;;;;;;;1.40;1.30;;;24.20;58.50;;;;;;5032427;28;20465;-84
2022/04/14 03:39:45;;;;;;;1.30;1.20;;;24.20;58.50;;;;;;5032597;28;20442;-83
2022/04/14 03:42:14;;;;;;;1.23;1.13;;;24.20;58.40;;;;;;5032654;28;20442;-85
2022/04/14 03:44:40;;;;;;;1.23;1.13;;;24.20;58.40;;;;;;5032599;28;20449;-85
2022/04/14 03:47:08;;;;;;;1.27;1.10;;;24.20;58.50;;;;;;5032448;28;20447;-81
2022/04/14 03:49:35;;;;;;;1.13;1.03;;;24.20;58.40;;;;;;5032914;28;20438;-81
2022/04/14 03:52:02;;;;;;;1.47;1.37;;;24.20;58.40;;;;;;5035943;28;20442;-85
2022/04/14 03:54:28;;;;;;;1.30;1.20;;;24.20;58.50;;;;;;5035981;28;20451;-82
2022/04/14 03:56:55;;;;;;;1.50;1.40;;;24.20;58.50;;;;;;5035640;28;20435;-85
2022/04/14 03:59:23;;;;;;;1.10;1.00;;;24.20;58.50;;;;;;5035816;28;20438;-81
2022/04/14 04:01:50;;;;;;;1.40;1.30;;;24.20;58.50;;;;;;5035804;28;20439;-81
2022/04/14 04:04:17;;;;;;;1.20;1.10;;;24.10;58.40;;;;;;5035735;28;20486;-81
2022/04/14 04:06:45;;;;;;;1.30;1.20;;;24.10;58.50;;;;;;5035596;28;20457;-81
2022/04/14 04:09:12;;;;;;;1.20;1.10;;;24.10;58.50;;;;;;5035713;28;20474;-84
2022/04/14 04:11:39;;;;;;;1.50;1.20;;;24.10;58.50;;;;;;5051293;28;20492;-81
2022/04/14 04:14:07;;;;;;;1.20;1.10;;;24.20;58.60;;;;;;5055519;28;20442;-81
2022/04/14 04:16:35;;;;;;;1.60;1.20;;;24.10;58.50;;;;;;5037753;28;20515;-82
2022/04/14 04:19:02;;;;;;;1.23;1.13;;;24.10;58.50;;;;;;5055489;28;20445;-81
2022/04/14 04:21:30;;;;;;;1.40;1.30;;;24.20;58.60;;;;;;5055024;28;20533;-81
2022/04/14 04:23:57;;;;;;;1.30;1.10;;;24.10;58.50;;;;;;5055400;28;20570;-82
2022/04/14 04:26:24;;;;;;;1.30;1.20;;;24.10;58.50;;;;;;5055336;28;20438;-81
2022/04/14 04:28:50;;;;;;;2.27;1.40;;;24.10;58.50;;;;;;5055244;28;20442;-82
2022/04/14 04:31:17;;;;;;;1.27;1.17;;;24.10;58.60;;;;;;5055277;28;20441;-83
2022/04/14 04:33:45;;;;;;;1.20;1.10;;;24.10;58.50;;;;;;5055194;28;20438;-84
2022/04/14 04:36:12;;;;;;;1.40;1.30;;;24.10;58.60;;;;;;5054934;28;20477;-82
2022/04/14 04:38:39;;;;;;;1.43;1.33;;;24.10;58.60;;;;;;5055182;28;20448;-84
2022/04/14 04:41:06;;;;;;;1.40;1.30;;;24.10;58.60;;;;;;5055144;28;20453;-81
2022/04/14 04:43:33;;;;;;;1.40;1.30;;;24.10;58.50;;;;;;5055004;28;20579;-84
2022/04/14 04:45:59;;;;;;;1.40;1.20;;;24.10;58.50;;;;;;5054739;28;20519;-81
2022/04/14 04:48:26;;;;;;;1.47;1.37;;;24.10;58.50;;;;;;5054730;28;20802;-80
2022/04/14 04:50:55;;;;;;;1.23;1.13;;;24.10;58.50;;;;;;5054705;28;20446;-82
2022/04/14 04:53:22;;;;;;;1.50;1.40;;;24.10;58.50;;;;;;5054551;28;20822;-84
2022/04/14 04:55:48;;;;;;;1.80;1.70;;;24.10;58.60;;;;;;5054662;28;20956;-81
2022/04/14 04:58:15;;;;;;;1.50;1.40;;;24.10;58.60;;;;;;5054916;28;20442;-82
2022/04/14 05:00:43;;;;;;;1.50;1.40;;;24.10;58.60;;;;;;5053846;28;20452;-80
2022/04/14 05:03:10;;;;;;;1.33;1.23;;;24.10;58.50;;;;;;5054474;28;20525;-81
2022/04/14 05:05:37;;;;;;;1.57;1.47;;;24.10;58.60;;;;;;5054440;28;20524;-80
2022/04/14 05:08:07;;;;;;;1.60;1.50;;;24.10;58.60;;;;;;5054398;28;20445;-80
2022/04/14 05:10:34;;;;;;;1.60;1.50;;;24.10;58.60;;;;;;5054439;28;20846;-80
2022/04/14 05:13:01;;;;;;;1.40;1.30;;;24.10;58.50;;;;;;5054238;28;20777;-81
2022/04/14 05:15:28;;;;;;;1.50;1.40;;;24.10;58.60;;;;;;5054651;28;20472;-81
2022/04/14 05:17:55;;;;;;;1.97;1.83;;;24.10;58.60;;;;;;5054104;28;20449;-81
2022/04/14 05:20:22;;;;;;;1.40;1.30;;;24.10;58.70;;;;;;5054265;28;20445;-82
2022/04/14 05:22:48;;;;;;;1.40;1.30;;;24.10;58.60;;;;;;5043827;28;20470;-85
2022/04/14 05:25:17;;;;;;;1.40;1.30;;;24.10;58.60;;;;;;5034218;28;20457;-81
2022/04/14 05:27:43;;;;;;;1.47;1.37;;;24.10;58.60;;;;;;5036849;28;20813;-83
2022/04/14 05:30:11;;;;;;;1.70;1.60;;;24.10;58.60;;;;;;5037366;28;20441;-80
2022/04/14 05:32:38;;;;;;;1.50;1.40;;;24.10;58.60;;;;;;5050934;28;20480;-80
2022/04/14 05:35:07;;;;;;;1.67;1.57;;;24.10;58.60;;;;;;5054223;28;20564;-81
2022/04/14 05:37:35;;;;;;;1.60;1.50;;;24.10;58.60;;;;;;5053782;28;20509;-84
2022/04/14 05:40:02;;;;;;;1.50;1.40;;;24.10;58.70;;;;;;5053889;28;20543;-81
2022/04/14 05:42:31;;;;;;;1.57;1.47;;;24.10;58.70;;;;;;5052933;28;20438;-81
2022/04/14 05:44:58;;;;;;;1.80;1.70;;;24.10;58.60;;;;;;5053452;28;20543;-82
2022/04/14 05:47:25;;;;;;;1.87;1.77;;;24.10;58.70;;;;;;5042089;28;20435;-80
2022/04/14 05:49:52;;;;;;;1.73;1.63;;;24.10;58.60;;;;;;5033643;28;20450;-85
2022/04/14 05:52:19;;;;;;;1.50;1.40;;;24.10;58.50;;;;;;5033884;28;20818;-84
2022/04/14 05:54:47;;;;;;;1.30;1.20;;;24.10;58.60;;;;;;5033862;28;20454;-83
2022/04/14 05:57:14;;;;;;;1.40;1.30;;;24.10;58.40;;;;;;5033527;28;20925;-84
2022/04/14 05:59:43;;;;;;;1.47;1.37;;;24.10;58.40;;;;;;5033772;28;20439;-83
2022/04/14 06:02:09;;;;;;;1.80;1.70;;;24.10;58.50;;;;;;5033447;28;20450;-81
2022/04/14 06:04:37;;;;;;;1.73;1.63;;;24.10;58.50;;;;;;5015629;28;20482;-82
2022/04/14 06:07:04;;;;;;;1.73;1.50;;;24.10;58.60;;;;;;5042105;28;20445;-81
2022/04/14 06:09:31;;;;;;;1.60;1.50;;;24.00;58.50;;;;;;5033494;28;20431;-83
2022/04/14 06:11:59;;;;;;;1.40;1.30;;;24.10;58.60;;;;;;5033183;28;20454;-82
2022/04/14 06:14:26;;;;;;;5.60;1.60;;;24.00;58.40;;;;;;5033512;28;20450;-82
2022/04/14 06:16:54;;;;;;;1.90;1.80;;;24.10;58.50;;;;;;5037081;28;20992;-81
2022/04/14 06:19:21;;;;;;;1.93;1.73;;;24.10;58.60;;;;;;5032783;28;20469;-81
2022/04/14 06:21:48;;;;;;;1.63;1.53;;;24.10;58.50;;;;;;5033229;28;20807;-81
2022/04/14 06:24:15;;;;;;;1.50;1.40;;;24.10;58.60;;;;;;5033124;28;20482;-80
2022/04/14 06:26:42;;;;;;;1.83;1.73;;;24.10;58.50;;;;;;5016265;28;20843;-82
2022/04/14 06:29:09;;;;;;;1.90;1.80;;;24.10;58.80;;;;;;5053302;28;20796;-82
2022/04/14 06:31:37;;;;;;;1.53;1.43;;;24.10;58.60;;;;;;5053516;28;20457;-83
2022/04/14 06:34:06;;;;;;;1.47;1.37;;;24.10;58.60;;;;;;5053911;28;20527;-83
2022/04/14 06:36:33;;;;;;;1.20;1.10;;;24.10;58.60;;;;;;5053162;28;20477;-82
2022/04/14 06:38:59;;;;;;;1.50;1.30;;;24.10;58.30;;;;;;5053382;28;20445;-83
2022/04/14 06:41:26;;;;;;;1.10;1.00;;;24.10;58.50;;;;;;5053321;28;20434;-82
2022/04/14 06:43:54;;;;;;;1.37;1.27;;;24.00;58.30;;;;;;5053977;28;20482;-82
2022/04/14 06:46:21;;;;;;;2.00;1.90;;;24.10;58.30;;;;;;5057924;28;20462;-83
2022/04/14 06:48:48;;;;;;;1.60;1.50;;;24.10;58.40;;;;;;5053275;28;20477;-83
2022/04/14 06:51:17;;;;;;;2.20;2.00;;;24.10;58.40;;;;;;5052860;28;20438;-82
2022/04/14 06:53:46;;;;;;;1.50;1.40;;;24.10;58.60;;;;;;5053082;28;20800;-82
2022/04/14 06:56:12;;;;;;;1.50;1.40;;;24.10;58.60;;;;;;5053153;28;20477;-83
2022/04/14 06:58:40;;;;;;;1.63;1.53;;;24.10;58.60;;;;;;5050883;28;20456;-80
2022/04/14 07:01:07;;;;;;;3.10;2.33;;;24.10;58.80;;;;;;5041339;28;20520;-80
2022/04/14 07:03:34;;;;;;;2.90;2.57;;;24.10;58.70;;;;;;5051478;28;20489;-80
2022/04/14 07:06:01;;;;;;;2.10;2.00;;;24.10;58.50;;;;;;5047290;28;20438;-82
2022/04/14 07:08:29;;;;;;;2.73;2.13;;;24.20;58.60;;;;;;5033134;28;20451;-80
2022/04/14 07:10:59;;;;;;;1.63;1.50;;;24.20;58.40;;;;;;5033342;28;20934;-83
2022/04/14 07:13:26;;;;;;;2.17;1.70;;;24.10;58.50;;;;;;5042666;28;20542;-86
2022/04/14 07:15:55;;;;;;;8.40;2.70;;;24.10;58.40;;;;;;5052967;28;20464;-92
2022/04/14 07:18:22;;;;;;;2.90;2.67;;;24.10;59.00;;;;;;5054092;28;20834;-93
2022/04/14 07:20:49;;;;;;;2.63;2.20;;;24.10;58.80;;;;;;5054884;28;20445;-87
2022/04/14 07:23:16;;;;;;;2.03;1.63;;;24.10;58.70;;;;;;5035825;28;20446;-86
2022/04/14 07:25:46;;;;;;;2.03;1.93;;;24.10;58.60;;;;;;5056275;28;20481;-87
2022/04/14 07:28:13;;;;;;;2.50;2.30;;;24.10;58.60;;;;;;5057185;28;20438;-87
2022/04/14 07:30:40;;;;;;;2.17;1.97;;;24.10;58.50;;;;;;5056967;28;20460;-88
2022/04/14 07:33:07;;;;;;;2.20;2.00;;;24.10;58.60;;;;;;5037985;28;20968;-85
2022/04/14 07:35:34;;;;;;;3.43;2.63;;;24.10;58.70;;;;;;5035285;28;20452;-85
2022/04/14 07:38:01;;;;;;;3.00;2.80;;;24.10;59.40;;;;;;5042392;28;20479;-93
2022/04/14 07:40:28;;;;;;;2.30;2.10;;;24.20;58.90;;;;;;5057438;28;20571;-85
2022/04/14 07:42:57;;;;;;;2.03;1.83;;;24.20;58.90;;;;;;5059432;28;20442;-91
2022/04/14 07:45:25;;;;;;;2.33;2.13;;;24.10;58.60;;;;;;5057019;28;20485;-89
2022/04/14 07:47:51;;;;;;;2.80;2.57;;;24.10;58.50;;;;;;5057554;28;20449;-89
2022/04/14 07:50:20;;;;;;;3.10;2.90;;;24.20;58.60;;;;;;5056429;28;20870;-91
2022/04/14 07:52:48;;;;;;;3.80;3.47;;;24.20;58.60;;;;;;5056343;28;20448;-86
2022/04/14 07:55:19;;;;;;;3.40;3.20;;;24.20;58.60;;;;;;5056209;28;20447;-88
2022/04/14 07:57:46;;;;;;;3.70;3.40;;;24.20;58.50;;;;;;5058413;28;20445;-86
2022/04/14 08:00:15;;;;;;;2.17;1.77;;;24.20;58.50;;;;;;5058696;28;20441;-84
2022/04/14 08:02:54;;;;;;;1.40;1.20;;;24.20;58.40;;;;;;5058621;28;20433;-84
2022/04/14 08:05:22;;;;;;;1.33;1.23;;;24.30;58.30;;;;;;5056534;28;20565;-83
2022/04/14 08:07:49;;;;;;;1.63;1.53;;;24.20;58.10;;;;;;5055851;28;20438;-86
2022/04/14 08:10:16;;;;;;;1.60;1.50;;;24.30;58.10;;;;;;5056613;28;20437;-86
2022/04/14 08:12:43;;;;;;;1.80;1.50;;;24.30;58.00;;;;;;5055959;28;20438;-85
2022/04/14 08:15:12;;;;;;;2.80;2.33;;;24.30;58.00;;;;;;5055679;28;20549;-82
2022/04/14 08:17:42;;;;;;;2.23;1.40;;;24.30;58.00;;;;;;5056506;28;20932;-86
2022/04/14 08:20:10;;;;;;;1.60;1.50;;;24.40;58.10;;;;;;5055904;28;20438;-83
2022/04/14 08:22:48;;;;;;;1.70;1.50;;;24.40;58.10;;;;;;5055581;28;20951;-91
2022/04/14 08:25:19;;;;;;;1.60;1.50;;;24.40;58.10;;;;;;5055919;28;20484;-90
2022/04/14 08:27:46;;;;;;;1.47;1.37;;;24.40;58.20;;;;;;5055672;28;20456;-86
2022/04/14 08:30:14;;;;;;;1.30;1.10;;;24.40;58.30;;;;;;5059000;28;20442;-84
2022/04/14 08:32:43;;;;;;;2.80;1.73;;;24.50;58.30;;;;;;5055670;28;20540;-88
2022/04/14 08:35:10;;;;;;;1.30;1.20;;;24.50;58.30;;;;;;5055361;28;20445;-85
2022/04/14 08:37:37;;;;;;;1.67;1.50;;;24.50;58.30;;;;;;5056645;28;20481;-88
2022/04/14 08:40:07;;;;;;;1.37;1.27;;;24.50;58.30;;;;;;5058002;28;20948;-83
2022/04/14 08:42:39;;;;;;;3.77;1.70;;;24.50;58.40;;;;;;5055542;28;20461;-91
2022/04/14 08:45:08;;;;;;;1.77;1.67;;;24.50;58.40;;;;;;5055334;28;20539;-84
2022/04/14 08:47:37;;;;;;;2.37;1.40;;;24.60;58.50;;;;;;5055622;28;21015;-91
2022/04/14 08:50:07;;;;;;;2.63;1.47;;;24.60;58.50;;;;;;5055725;28;20450;-86
2022/04/14 08:52:35;;;;;;;2.07;1.33;;;24.60;58.40;;;;;;5059845;28;20441;-87
2022/04/14 08:55:04;;;;;;;2.00;1.73;;;24.60;58.50;;;;;;5059681;28;20450;-85
2022/04/14 08:57:41;;;;;;;1.77;1.67;;;24.60;58.40;;;;;;5061101;28;20525;-85
2022/04/14 09:00:10;;;;;;;1.93;1.83;;;24.60;58.60;;;;;;5060262;28;20500;-86
2022/04/14 09:02:37;;;;;;;2.40;1.70;;;24.70;58.70;;;;;;5056852;28;20453;-86
2022/04/14 09:05:08;;;;;;;2.07;1.87;;;24.70;58.80;;;;;;5055325;28;20482;-88
2022/04/14 09:07:35;;;;;;;1.60;1.50;;;24.70;58.80;;;;;;5056435;28;20444;-88
2022/04/14 09:10:01;;;;;;;1.70;1.60;;;24.70;58.80;;;;;;5057245;28;20445;-85
2022/04/14 09:12:30;;;;;;;2.00;1.77;;;24.80;58.80;;;;;;5055282;28;20504;-86
2022/04/14 09:15:05;;;;;;;4.03;2.23;;;24.80;58.80;;;;;;5055700;28;20462;-86
2022/04/14 09:17:32;;;;;;;2.00;1.80;;;24.80;58.90;;;;;;5059443;28;20469;-84
2022/04/14 09:19:59;;;;;;;2.33;2.13;;;24.80;59.00;;;;;;5055004;28;20444;-84
2022/04/14 09:22:27;;;;;;;1.93;1.80;;;24.90;59.10;;;;;;5055107;28;20446;-88
2022/04/14 09:24:56;;;;;;;2.30;2.10;;;24.80;59.00;;;;;;5055247;28;20485;-86
2022/04/14 09:27:28;;;;;;;2.17;2.07;;;24.90;59.00;;;;;;5056283;28;20537;-84
2022/04/14 09:30:03;;;;;;;1.97;1.63;;;24.80;58.80;;;;;;5054671;28;20445;-87
2022/04/14 09:32:32;;;;;;;2.87;2.67;;;24.90;58.90;;;;;;5054910;28;20437;-85
2022/04/14 09:35:00;;;;;;;2.30;2.10;;;24.80;58.90;;;;;;5054212;28;20541;-84
2022/04/14 09:37:29;;;;;;;1.60;1.43;;;24.90;58.70;;;;;;5053855;28;20484;-86
2022/04/14 09:39:57;;;;;;;1.97;1.87;;;24.90;58.90;;;;;;5054327;28;20464;-86
2022/04/14 09:42:26;;;;;;;2.00;1.90;;;24.90;59.00;;;;;;5054319;28;20440;-87
2022/04/14 09:45:20;;;;;;;2.00;1.90;;;24.90;59.10;;;;;;5054983;28;20489;-96
2022/04/14 09:47:50;;;;;;;2.80;2.27;;;25.00;59.10;;;;;;5066600;28;20537;-96
2022/04/14 09:50:32;;;;;;;2.23;2.13;;;25.00;59.90;;;;;;5065814;28;20477;-90
2022/04/14 09:53:20;;;;;;;1.90;1.80;;;25.00;59.20;;;;;;5060175;28;20947;-91
2022/04/14 09:55:57;;;;;;;3.63;3.37;;;25.00;59.20;;;;;;5054507;28;20428;-89
2022/04/14 09:58:25;;;;;;;3.30;3.10;;;25.10;58.90;;;;;;5053849;28;20532;-88
2022/04/14 10:00:53;;;;;;;3.40;3.10;;;25.00;58.40;;;;;;5053737;28;20449;-90
2022/04/14 10:03:21;;;;;;;4.23;3.93;;;25.10;58.40;;;;;;5054019;28;20444;-86
2022/04/14 10:05:50;;;;;;;3.27;3.07;;;25.10;58.50;;;;;;5054254;28;20485;-89
2022/04/14 10:08:19;;;;;;;5.10;4.60;;;25.00;58.50;;;;;;5055568;28;20460;-88
2022/04/14 10:10:48;;;;;;;3.07;2.70;;;25.00;58.60;;;;;;5054219;28;20449;-89
2022/04/14 10:13:16;;;;;;;6.83;4.47;;;25.00;58.60;;;;;;5056503;28;20453;-89
2022/04/14 10:15:45;;;;;;;5.30;4.90;;;25.00;58.80;;;;;;5054372;28;20462;-85
2022/04/14 10:18:15;;;;;;;6.67;6.07;;;25.00;58.90;;;;;;5053459;28;20452;-88
2022/04/14 10:20:43;;;;;;;6.10;5.57;;;25.00;58.90;;;;;;5053756;28;20440;-86
2022/04/14 10:23:12;;;;;;;5.60;5.10;;;25.00;58.90;;;;;;5053734;28;20438;-88
2022/04/14 10:25:42;;;;;;;7.70;6.20;;;25.00;59.00;;;;;;5036730;28;20486;-86
2022/04/14 10:28:13;;;;;;;6.67;5.97;;;25.00;59.10;;;;;;5033756;28;20781;-87
2022/04/14 10:30:41;;;;;;;6.70;6.17;;;25.00;59.10;;;;;;5034514;28;20449;-87
2022/04/14 10:33:10;;;;;;;7.80;7.00;;;25.00;59.00;;;;;;5033616;28;20817;-88
2022/04/14 10:35:37;;;;;;;8.90;8.03;;;25.00;59.50;;;;;;5033695;28;20446;-89
2022/04/14 10:38:11;;;;;;;8.43;7.47;;;25.00;59.10;;;;;;5034363;28;20478;-90
2022/04/14 10:40:46;;;;;;;10.73;6.20;;;25.00;59.00;;;;;;5034732;28;20441;-92
2022/04/14 10:43:15;;;;;;;7.37;6.67;;;25.00;59.00;;;;;;5034626;28;20799;-90
2022/04/14 10:45:50;;;;;;;8.67;6.07;;;25.00;59.00;;;;;;5035108;28;20494;-92
2022/04/14 10:48:30;;;;;;;7.10;6.57;;;25.10;59.00;;;;;;5033865;28;20442;-87
2022/04/14 10:51:20;;;;;;;9.90;6.93;;;25.10;59.20;;;;;;5033934;28;20457;-88
2022/04/14 10:53:52;;;;;;;7.30;6.60;;;25.00;59.20;;;;;;5035457;28;20438;-88
2022/04/14 10:56:46;;;;;;;7.00;6.30;;;25.00;59.40;;;;;;5033294;28;20438;-87
2022/04/14 10:59:14;;;;;;;8.23;6.67;;;25.10;59.40;;;;;;5034816;28;20438;-87
2022/04/14 11:02:02;;;;;;;6.77;6.27;;;25.00;59.40;;;;;;5037198;28;20478;-86
2022/04/14 11:04:37;;;;;;;8.70;5.60;;;25.10;59.30;;;;;;5037376;28;20438;-84
2022/04/14 11:07:11;;;;;;;5.13;4.73;;;25.10;59.00;;;;;;5036710;28;20452;-84
2022/04/14 11:09:57;;;;;;;4.67;4.37;;;25.10;58.70;;;;;;5036743;28;20449;-82
2022/04/14 11:12:27;;;;;;;5.00;4.70;;;25.10;58.70;;;;;;5036001;28;20470;-81
2022/04/14 11:14:57;;;;;;;5.00;4.60;;;25.10;58.70;;;;;;5036036;28;20836;-84
2022/04/14 11:18:04;;;;;;;4.33;3.93;;;25.10;58.70;;;;;;5036203;28;20443;-81
2022/04/14 11:20:57;;;;;;;3.33;3.13;;;25.10;58.60;;;;;;5036206;28;20454;-81
2022/04/14 11:23:28;;;;;;;4.90;4.10;;;25.10;58.90;;;;;;5036292;28;20802;-81
2022/04/14 11:26:08;;;;;;;3.80;3.50;;;25.10;58.90;;;;;;5036788;28;20525;-81
2022/04/14 11:28:38;;;;;;;4.63;3.83;;;25.10;58.80;;;;;;5036763;28;20446;-85
2022/04/14 11:31:22;;;;;;;4.37;4.07;;;25.00;58.80;;;;;;5037144;28;20534;-82
2022/04/14 11:33:50;;;;;;;3.80;3.50;;;25.10;58.90;;;;;;5036635;28;20446;-82
2022/04/14 11:36:19;;;;;;;4.00;3.37;;;25.00;58.80;;;;;;5036345;28;20474;-85
2022/04/14 11:39:02;;;;;;;3.90;3.60;;;25.00;58.80;;;;;;5036528;28;20454;-85
2022/04/14 11:41:34;;;;;;;3.53;3.23;;;25.10;58.70;;;;;;5036507;28;20441;-82
2022/04/14 11:44:03;;;;;;;3.43;3.13;;;25.00;58.80;;;;;;5036269;28;21003;-82
2022/04/14 11:46:30;;;;;;;3.30;3.10;;;25.00;58.90;;;;;;5036233;28;20485;-83
2022/04/14 11:48:58;;;;;;;3.67;3.13;;;25.00;58.80;;;;;;5036362;28;20443;-82
2022/04/14 11:51:26;;;;;;;3.43;3.13;;;24.90;58.60;;;;;;5036333;28;20450;-80
2022/04/14 11:53:55;;;;;;;3.60;3.30;;;25.00;58.90;;;;;;5036281;28;20533;-85
2022/04/14 11:56:24;;;;;;;4.30;2.87;;;25.10;58.90;;;;;;5036300;28;20496;-83
2022/04/14 11:58:52;;;;;;;3.97;3.57;;;25.00;58.70;;;;;;5037380;28;20446;-81
2022/04/14 12:01:21;;;;;;;4.90;3.57;;;25.10;58.90;;;;;;5042135;28;20530;-81
2022/04/14 12:03:48;;;;;;;3.50;3.10;;;25.20;58.90;;;;;;5037343;28;20496;-84
2022/04/14 12:06:16;;;;;;;2.80;2.60;;;25.20;58.90;;;;;;5036006;28;20486;-82
2022/04/14 12:08:52;;;;;;;4.67;2.73;;;25.20;58.90;;;;;;5035873;28;20450;-86
2022/04/14 12:11:20;;;;;;;2.70;2.50;;;25.20;58.70;;;;;;5034756;28;20449;-84
2022/04/14 12:13:47;;;;;;;2.67;2.47;;;25.20;58.50;;;;;;5035836;28;20484;-84
2022/04/14 12:16:15;;;;;;;7.43;2.40;;;25.20;58.60;;;;;;5035880;28;20458;-85
2022/04/14 12:18:51;;;;;;;2.30;2.10;;;25.20;58.60;;;;;;5035873;28;20515;-85
2022/04/14 12:21:19;;;;;;;2.83;1.93;;;25.20;58.60;;;;;;5035866;28;20806;-85
2022/04/14 12:23:51;;;;;;;2.50;1.83;;;25.20;58.60;;;;;;5035727;28;20443;-85
2022/04/14 12:26:19;;;;;;;2.30;2.20;;;25.20;58.60;;;;;;5035677;28;20485;-84
2022/04/14 12:28:47;;;;;;;3.10;2.00;;;25.10;58.60;;;;;;5035598;28;20443;-85
2022/04/14 12:31:16;;;;;;;3.40;2.20;;;25.20;58.60;;;;;;5035861;28;20488;-85
2022/04/14 12:33:55;;;;;;;3.10;2.13;;;25.10;58.50;;;;;;5035521;28;20442;-85
2022/04/14 12:36:32;;;;;;;6.07;2.17;;;25.10;58.30;;;;;;5035369;28;20485;-85
2022/04/14 12:38:59;;;;;;;2.90;1.67;;;25.00;58.30;;;;;;5041612;28;20441;-80
2022/04/14 12:41:33;;;;;;;2.20;2.00;;;25.00;58.30;;;;;;5044122;28;20526;-80
2022/04/14 12:43:59;;;;;;;2.43;1.70;;;25.00;58.50;;;;;;5041536;28;20438;-82
2022/04/14 12:46:28;;;;;;;2.13;1.93;;;25.00;58.50;;;;;;5041349;28;20492;-84
2022/04/14 12:49:06;;;;;;;3.53;2.03;;;25.10;58.60;;;;;;5045621;28;20438;-84
2022/04/14 12:51:36;;;;;;;2.43;1.97;;;25.10;58.50;;;;;;5038270;28;20854;-84
2022/04/14 12:54:03;;;;;;;2.80;2.13;;;25.10;58.50;;;;;;5049113;28;20438;-89
2022/04/14 12:56:30;;;;;;;3.40;1.97;;;25.10;58.40;;;;;;5039568;28;20427;-84